createdAt,value
2017-03-22T00:00:38.039Z,4.18
2017-03-22T00:01:18.567Z,4.27
2017-03-22T00:01:59.095Z,4.26
2017-03-22T00:02:39.627Z,4.2
2017-03-22T00:03:20.150Z,4.15
2017-03-22T00:04:00.662Z,4.18
2017-03-22T00:04:41.190Z,4.26
2017-03-22T00:05:21.726Z,4.3
2017-03-22T00:06:02.249Z,4.3
2017-03-22T00:06:42.769Z,4.27
2017-03-22T00:07:23.276Z,4.23
2017-03-22T00:08:03.813Z,4.18
2017-03-22T00:08:44.328Z,4.2
2017-03-22T00:09:24.851Z,4.3
2017-03-22T00:10:05.367Z,4.2
2017-03-22T00:10:45.872Z,4.26
2017-03-22T00:11:26.397Z,4.22
2017-03-22T00:12:06.916Z,4.26
2017-03-22T00:12:47.444Z,4.24
2017-03-22T00:13:27.962Z,4.2
2017-03-22T00:14:08.499Z,4.14
2017-03-22T00:14:49.019Z,4.14
2017-03-22T00:15:29.546Z,4.11
2017-03-22T00:16:10.060Z,4.08
2017-03-22T00:16:50.578Z,4.11
2017-03-22T00:17:31.088Z,4.14
2017-03-22T00:18:11.608Z,4.06
2017-03-22T00:18:52.159Z,4.02
2017-03-22T00:19:32.681Z,4.08
2017-03-22T00:20:13.226Z,4.08
2017-03-22T00:20:53.705Z,4.02
2017-03-22T00:21:34.233Z,4.02
2017-03-22T00:22:14.741Z,4
2017-03-22T00:22:55.253Z,3.97
2017-03-22T00:23:35.780Z,4.08
2017-03-22T00:24:16.298Z,3.98
2017-03-22T00:24:56.808Z,3.94
2017-03-22T00:25:37.325Z,4.02
2017-03-22T00:26:17.838Z,4.04
2017-03-22T00:26:58.372Z,4.02
2017-03-22T00:27:38.866Z,3.9
2017-03-22T00:28:19.381Z,3.91
2017-03-22T00:28:59.890Z,3.93
2017-03-22T00:29:40.426Z,3.93
2017-03-22T00:30:20.959Z,3.93
2017-03-22T00:31:01.489Z,3.9
2017-03-22T00:31:42.009Z,3.96
2017-03-22T00:32:22.543Z,3.91
2017-03-22T00:33:03.069Z,4
2017-03-22T00:33:43.600Z,3.94
2017-03-22T00:34:24.127Z,3.93
2017-03-22T00:35:04.648Z,3.9
2017-03-22T00:35:45.183Z,3.91
2017-03-22T00:36:25.699Z,3.96
2017-03-22T00:37:06.220Z,3.93
2017-03-22T00:37:46.749Z,3.94
2017-03-22T00:38:27.269Z,3.97
2017-03-22T00:39:07.789Z,3.93
2017-03-22T00:39:48.304Z,3.97
2017-03-22T00:40:28.821Z,3.93
2017-03-22T00:41:09.340Z,3.94
2017-03-22T00:41:49.866Z,3.86
2017-03-22T00:42:30.390Z,3.94
2017-03-22T00:43:10.893Z,3.86
2017-03-22T00:43:51.413Z,3.91
2017-03-22T00:44:31.938Z,3.9
2017-03-22T00:45:12.472Z,3.91
2017-03-22T00:45:53.000Z,3.91
2017-03-22T00:46:33.514Z,3.87
2017-03-22T00:47:14.039Z,3.96
2017-03-22T00:47:54.549Z,3.91
2017-03-22T00:48:35.060Z,3.9
2017-03-22T00:49:15.576Z,3.9
2017-03-22T00:49:56.103Z,3.93
2017-03-22T00:50:36.630Z,3.93
2017-03-22T00:51:17.161Z,3.91
2017-03-22T00:51:57.682Z,3.84
2017-03-22T00:52:38.202Z,3.9
2017-03-22T00:53:18.701Z,3.88
2017-03-22T00:53:59.228Z,3.83
2017-03-22T00:54:39.750Z,3.87
2017-03-22T00:55:20.251Z,3.87
2017-03-22T00:56:00.766Z,3.84
2017-03-22T00:56:41.272Z,3.83
2017-03-22T00:57:21.792Z,3.8
2017-03-22T00:58:02.298Z,3.79
2017-03-22T00:58:42.830Z,3.83
2017-03-22T00:59:23.342Z,3.73
2017-03-22T01:00:03.864Z,3.78
2017-03-22T01:00:44.385Z,3.69
2017-03-22T01:01:24.887Z,3.76
2017-03-22T01:02:05.369Z,3.78
2017-03-22T01:02:45.894Z,3.68
2017-03-22T01:03:26.414Z,3.69
2017-03-22T01:04:06.948Z,3.68
2017-03-22T01:04:47.440Z,3.76
2017-03-22T01:05:27.935Z,3.72
2017-03-22T01:06:08.452Z,3.66
2017-03-22T01:06:48.986Z,3.66
2017-03-22T01:07:29.500Z,3.69
2017-03-22T01:08:10.032Z,3.72
2017-03-22T01:08:50.562Z,3.73
2017-03-22T01:09:31.087Z,3.7
2017-03-22T01:10:11.593Z,3.76
2017-03-22T01:10:52.113Z,3.73
2017-03-22T01:11:32.624Z,3.69
2017-03-22T01:12:13.148Z,3.7
2017-03-22T01:12:53.655Z,3.68
2017-03-22T01:13:34.183Z,3.72
2017-03-22T01:14:14.693Z,3.68
2017-03-22T01:14:55.202Z,3.75
2017-03-22T01:15:35.728Z,3.7
2017-03-22T01:16:16.301Z,3.66
2017-03-22T01:16:56.828Z,3.65
2017-03-22T01:17:37.350Z,3.66
2017-03-22T01:18:17.870Z,3.69
2017-03-22T01:18:58.392Z,3.57
2017-03-22T01:19:38.906Z,3.61
2017-03-22T01:20:19.429Z,3.62
2017-03-22T01:20:59.952Z,3.54
2017-03-22T01:21:40.476Z,3.48
2017-03-22T01:22:20.984Z,3.57
2017-03-22T01:23:01.501Z,3.5
2017-03-22T01:23:42.032Z,3.48
2017-03-22T01:24:22.561Z,3.48
2017-03-22T01:25:03.082Z,3.42
2017-03-22T01:25:43.604Z,3.43
2017-03-22T01:26:24.141Z,3.42
2017-03-22T01:27:04.651Z,3.39
2017-03-22T01:27:45.176Z,3.42
2017-03-22T01:28:25.692Z,3.4
2017-03-22T01:29:06.182Z,3.32
2017-03-22T01:29:46.699Z,3.36
2017-03-22T01:30:27.209Z,3.28
2017-03-22T01:31:07.735Z,3.24
2017-03-22T01:31:48.267Z,3.23
2017-03-22T01:32:28.802Z,3.26
2017-03-22T01:33:09.323Z,3.28
2017-03-22T01:33:49.850Z,3.23
2017-03-22T01:34:30.358Z,3.24
2017-03-22T01:35:10.869Z,3.21
2017-03-22T01:35:51.386Z,3.21
2017-03-22T01:36:31.885Z,3.21
2017-03-22T01:37:12.400Z,3.11
2017-03-22T01:37:52.906Z,3.13
2017-03-22T01:38:33.399Z,3.2
2017-03-22T01:39:13.905Z,3.17
2017-03-22T01:39:54.422Z,3.17
2017-03-22T01:40:34.938Z,3.15
2017-03-22T01:41:15.451Z,3.13
2017-03-22T01:41:55.970Z,3.15
2017-03-22T01:42:36.483Z,3.1
2017-03-22T01:43:16.987Z,3.06
2017-03-22T01:43:57.500Z,3.11
2017-03-22T01:44:38.020Z,3.1
2017-03-22T01:45:18.543Z,3.06
2017-03-22T01:45:59.065Z,3.13
2017-03-22T01:46:39.573Z,3.05
2017-03-22T01:47:20.103Z,3.05
2017-03-22T01:48:00.635Z,3.15
2017-03-22T01:48:41.157Z,3.11
2017-03-22T01:49:21.682Z,3.1
2017-03-22T01:50:02.197Z,3.13
2017-03-22T01:50:42.710Z,3.15
2017-03-22T01:51:23.223Z,3.18
2017-03-22T01:52:03.750Z,3.13
2017-03-22T01:52:44.247Z,3.13
2017-03-22T01:53:24.774Z,3.14
2017-03-22T01:54:05.274Z,3.15
2017-03-22T01:54:45.785Z,3.11
2017-03-22T01:55:26.295Z,3.15
2017-03-22T01:56:06.822Z,3.08
2017-03-22T01:56:47.343Z,3.14
2017-03-22T01:57:27.844Z,3.11
2017-03-22T01:58:08.355Z,3.11
2017-03-22T01:58:48.872Z,3.18
2017-03-22T01:59:29.401Z,3.13
2017-03-22T02:00:09.905Z,3.13
2017-03-22T02:00:50.423Z,3.05
2017-03-22T02:01:30.955Z,3.1
2017-03-22T02:02:11.498Z,3.14
2017-03-22T02:02:52.014Z,3.1
2017-03-22T02:03:32.526Z,3.06
2017-03-22T02:04:13.055Z,3.18
2017-03-22T02:04:53.597Z,3.17
2017-03-22T02:05:34.130Z,3.18
2017-03-22T02:06:14.653Z,3.1
2017-03-22T02:06:55.191Z,3.06
2017-03-22T02:07:35.712Z,3.13
2017-03-22T02:08:16.252Z,3.13
2017-03-22T02:08:56.779Z,3.2
2017-03-22T02:09:37.314Z,3.14
2017-03-22T02:10:17.824Z,3.15
2017-03-22T02:10:58.355Z,3.14
2017-03-22T02:11:38.891Z,3.18
2017-03-22T02:12:19.408Z,3.13
2017-03-22T02:12:59.923Z,3.15
2017-03-22T02:13:40.453Z,3.14
2017-03-22T02:14:20.958Z,3.13
2017-03-22T02:15:01.474Z,3.1
2017-03-22T02:15:41.989Z,3.08
2017-03-22T02:16:22.504Z,3.11
2017-03-22T02:17:03.017Z,3.17
2017-03-22T02:17:43.551Z,3.14
2017-03-22T02:18:24.087Z,3.11
2017-03-22T02:19:04.605Z,3.11
2017-03-22T02:19:45.117Z,3.13
2017-03-22T02:20:25.645Z,3.13
2017-03-22T02:21:06.171Z,3.06
2017-03-22T02:21:46.687Z,3.1
2017-03-22T02:22:27.192Z,3.08
2017-03-22T02:23:07.717Z,3.06
2017-03-22T02:23:48.238Z,3.05
2017-03-22T02:24:28.755Z,3.08
2017-03-22T02:25:09.291Z,3.05
2017-03-22T02:25:49.831Z,3.08
2017-03-22T02:26:30.348Z,3.08
2017-03-22T02:27:10.877Z,3.06
2017-03-22T02:27:51.390Z,3.06
2017-03-22T02:28:31.923Z,2.99
2017-03-22T02:29:12.466Z,3.05
2017-03-22T02:29:52.996Z,2.89
2017-03-22T02:30:33.555Z,3.06
2017-03-22T02:31:14.041Z,2.96
2017-03-22T02:31:54.566Z,3.03
2017-03-22T02:32:35.042Z,2.95
2017-03-22T02:33:15.541Z,3
2017-03-22T02:33:56.067Z,2.93
2017-03-22T02:34:36.571Z,2.99
2017-03-22T02:35:17.106Z,3.03
2017-03-22T02:35:57.666Z,2.97
2017-03-22T02:36:38.153Z,2.9
2017-03-22T02:37:25.527Z,2.95
2017-03-22T02:38:06.067Z,2.96
2017-03-22T02:38:46.586Z,2.95
2017-03-22T02:39:27.122Z,2.92
2017-03-22T02:40:07.655Z,2.92
2017-03-22T02:40:48.185Z,2.92
2017-03-22T02:41:28.686Z,2.93
2017-03-22T02:42:09.264Z,2.95
2017-03-22T02:42:49.821Z,2.93
2017-03-22T02:43:30.363Z,2.97
2017-03-22T02:44:10.892Z,2.95
2017-03-22T02:44:51.431Z,2.96
2017-03-22T02:45:31.958Z,2.95
2017-03-22T02:46:12.484Z,2.87
2017-03-22T02:46:52.999Z,2.99
2017-03-22T02:47:33.550Z,2.96
2017-03-22T02:48:14.108Z,3
2017-03-22T02:48:54.591Z,2.89
2017-03-22T02:49:35.127Z,2.96
2017-03-22T02:50:15.626Z,2.95
2017-03-22T02:50:56.133Z,3
2017-03-22T02:51:36.617Z,2.95
2017-03-22T02:52:17.126Z,2.92
2017-03-22T02:52:57.600Z,2.85
2017-03-22T02:53:38.116Z,2.93
2017-03-22T02:54:18.599Z,2.92
2017-03-22T02:54:59.106Z,2.85
2017-03-22T02:55:39.618Z,2.82
2017-03-22T02:56:20.173Z,2.85
2017-03-22T02:57:00.693Z,2.87
2017-03-22T02:57:41.220Z,2.87
2017-03-22T02:58:21.775Z,2.89
2017-03-22T02:59:02.323Z,2.79
2017-03-22T02:59:42.898Z,2.84
2017-03-22T03:00:23.438Z,2.9
2017-03-22T03:01:03.967Z,2.89
2017-03-22T03:01:44.499Z,2.82
2017-03-22T03:02:24.985Z,2.85
2017-03-22T03:03:05.520Z,2.82
2017-03-22T03:03:45.992Z,2.82
2017-03-22T03:04:26.528Z,2.72
2017-03-22T03:05:07.136Z,2.81
2017-03-22T03:05:47.658Z,2.77
2017-03-22T03:06:28.201Z,2.77
2017-03-22T03:07:08.737Z,2.78
2017-03-22T03:07:49.308Z,2.71
2017-03-22T03:08:29.834Z,2.75
2017-03-22T03:09:10.396Z,2.75
2017-03-22T03:09:50.868Z,2.81
2017-03-22T03:10:31.377Z,2.79
2017-03-22T03:11:11.917Z,2.74
2017-03-22T03:11:52.458Z,2.71
2017-03-22T03:12:33.006Z,2.64
2017-03-22T03:13:13.545Z,2.66
2017-03-22T03:13:54.103Z,2.66
2017-03-22T03:14:34.648Z,2.59
2017-03-22T03:15:15.229Z,2.63
2017-03-22T03:15:55.725Z,2.56
2017-03-22T03:16:36.255Z,2.63
2017-03-22T03:17:16.745Z,2.56
2017-03-22T03:17:57.256Z,2.59
2017-03-22T03:18:37.799Z,2.59
2017-03-22T03:19:18.301Z,2.53
2017-03-22T03:19:58.807Z,2.56
2017-03-22T03:20:39.319Z,2.57
2017-03-22T03:21:19.803Z,2.52
2017-03-22T03:22:00.331Z,2.48
2017-03-22T03:22:40.852Z,2.56
2017-03-22T03:23:21.399Z,2.57
2017-03-22T03:24:01.916Z,2.57
2017-03-22T03:24:42.424Z,2.53
2017-03-22T03:25:22.994Z,2.48
2017-03-22T03:26:03.506Z,2.48
2017-03-22T03:26:44.013Z,2.49
2017-03-22T03:27:24.571Z,2.45
2017-03-22T03:28:05.056Z,2.53
2017-03-22T03:28:45.590Z,2.41
2017-03-22T03:29:26.086Z,2.43
2017-03-22T03:30:06.602Z,2.45
2017-03-22T03:30:47.137Z,2.41
2017-03-22T03:31:27.627Z,2.34
2017-03-22T03:32:08.146Z,2.34
2017-03-22T03:32:48.647Z,2.36
2017-03-22T03:33:29.187Z,2.34
2017-03-22T03:34:09.645Z,2.3
2017-03-22T03:34:50.156Z,2.34
2017-03-22T03:35:30.657Z,2.27
2017-03-22T03:36:11.192Z,2.31
2017-03-22T03:36:51.744Z,2.31
2017-03-22T03:37:32.266Z,2.25
2017-03-22T03:38:12.787Z,2.3
2017-03-22T03:38:53.318Z,2.27
2017-03-22T03:39:33.854Z,2.31
2017-03-22T03:40:14.396Z,2.27
2017-03-22T03:40:54.928Z,2.31
2017-03-22T03:41:35.455Z,2.25
2017-03-22T03:42:16.006Z,2.25
2017-03-22T03:42:56.554Z,2.31
2017-03-22T03:43:37.080Z,2.18
2017-03-22T03:44:17.551Z,2.24
2017-03-22T03:44:58.075Z,2.28
2017-03-22T03:45:38.614Z,2.27
2017-03-22T03:46:19.101Z,2.24
2017-03-22T03:46:59.647Z,2.16
2017-03-22T03:47:40.191Z,2.21
2017-03-22T03:48:20.735Z,2.21
2017-03-22T03:49:01.240Z,2.23
2017-03-22T03:49:41.737Z,2.18
2017-03-22T03:50:22.242Z,2.18
2017-03-22T03:51:02.778Z,2.18
2017-03-22T03:51:43.366Z,2.18
2017-03-22T03:52:23.928Z,2.1
2017-03-22T03:53:04.455Z,2.07
2017-03-22T03:53:45.030Z,2.07
2017-03-22T03:54:25.567Z,2.09
2017-03-22T03:55:06.087Z,2.17
2017-03-22T03:55:46.606Z,2.1
2017-03-22T03:56:27.102Z,2.2
2017-03-22T03:57:07.651Z,2.12
2017-03-22T03:57:48.193Z,2.09
2017-03-22T03:58:28.696Z,2.09
2017-03-22T03:59:09.249Z,2.17
2017-03-22T03:59:49.796Z,2.17
2017-03-22T04:00:30.344Z,2.25
2017-03-22T04:01:10.904Z,2.21
2017-03-22T04:01:51.457Z,2.17
2017-03-22T04:02:31.986Z,2.24
2017-03-22T04:03:12.509Z,2.21
2017-03-22T04:03:53.024Z,2.25
2017-03-22T04:04:33.530Z,2.23
2017-03-22T04:05:14.020Z,2.12
2017-03-22T04:05:54.533Z,2.14
2017-03-22T04:06:35.022Z,2.18
2017-03-22T04:07:15.528Z,2.18
2017-03-22T04:07:56.103Z,2.2
2017-03-22T04:08:36.637Z,2.17
2017-03-22T04:09:17.162Z,2.1
2017-03-22T04:09:57.672Z,2.14
2017-03-22T04:10:38.185Z,2.12
2017-03-22T04:11:18.701Z,2.16
2017-03-22T04:11:59.213Z,2.1
2017-03-22T04:12:39.742Z,2.2
2017-03-22T04:13:20.275Z,2.12
2017-03-22T04:14:00.797Z,2.05
2017-03-22T04:14:41.316Z,2.05
2017-03-22T04:15:21.849Z,2.07
2017-03-22T04:16:02.372Z,2.1
2017-03-22T04:16:42.897Z,2.03
2017-03-22T04:17:23.428Z,2.03
2017-03-22T04:18:03.955Z,1.99
2017-03-22T04:18:44.493Z,2.1
2017-03-22T04:19:25.017Z,2.1
2017-03-22T04:20:05.536Z,2.09
2017-03-22T04:20:46.065Z,2.1
2017-03-22T04:21:26.593Z,2.07
2017-03-22T04:22:07.112Z,2.07
2017-03-22T04:22:47.624Z,2.06
2017-03-22T04:23:28.140Z,2.07
2017-03-22T04:24:08.660Z,2
2017-03-22T04:24:49.243Z,2.03
2017-03-22T04:25:29.809Z,2
2017-03-22T04:26:10.330Z,2.02
2017-03-22T04:26:50.907Z,2.07
2017-03-22T04:27:31.428Z,2.1
2017-03-22T04:28:11.951Z,2.09
2017-03-22T04:28:52.494Z,1.9
2017-03-22T04:29:33.006Z,1.99
2017-03-22T04:30:13.509Z,2.06
2017-03-22T04:30:54.029Z,2.02
2017-03-22T04:31:34.553Z,2.05
2017-03-22T04:32:15.047Z,2.05
2017-03-22T04:32:55.570Z,2.07
2017-03-22T04:33:36.091Z,2.07
2017-03-22T04:34:16.614Z,2.02
2017-03-22T04:34:57.129Z,2.09
2017-03-22T04:35:37.653Z,2.14
2017-03-22T04:36:18.173Z,2.03
2017-03-22T04:36:58.683Z,2.05
2017-03-22T04:37:39.211Z,2.09
2017-03-22T04:38:19.764Z,2.14
2017-03-22T04:39:00.293Z,2.07
2017-03-22T04:39:40.801Z,2.1
2017-03-22T04:40:21.346Z,2.07
2017-03-22T04:41:01.862Z,2.16
2017-03-22T04:41:42.381Z,2.05
2017-03-22T04:42:22.916Z,2.2
2017-03-22T04:43:03.444Z,2.16
2017-03-22T04:43:44.137Z,2.1
2017-03-22T04:44:24.593Z,2.12
2017-03-22T04:45:05.107Z,2.16
2017-03-22T04:45:45.640Z,2.12
2017-03-22T04:46:26.216Z,2.17
2017-03-22T04:47:06.740Z,2.12
2017-03-22T04:47:47.262Z,2.17
2017-03-22T04:48:27.855Z,2.09
2017-03-22T04:49:09.341Z,2.12
2017-03-22T04:49:49.910Z,2.12
2017-03-22T04:50:30.459Z,2.17
2017-03-22T04:51:11.053Z,2.23
2017-03-22T04:51:51.654Z,2.14
2017-03-22T04:52:32.153Z,2.17
2017-03-22T04:53:12.705Z,2.21
2017-03-22T04:53:53.254Z,2.23
2017-03-22T04:54:33.795Z,2.2
2017-03-22T04:55:14.417Z,2.18
2017-03-22T04:57:08.489Z,2.25
2017-03-22T04:57:48.959Z,2.28
2017-03-22T04:58:29.440Z,2.31
2017-03-22T04:59:09.997Z,2.25
2017-03-22T04:59:50.551Z,2.23
2017-03-22T05:00:31.589Z,2.28
2017-03-22T05:01:12.154Z,2.34
2017-03-22T05:01:52.730Z,2.31
2017-03-22T05:02:33.395Z,2.24
2017-03-22T05:03:15.235Z,2.34
2017-03-22T05:03:57.102Z,2.31
2017-03-22T05:04:37.743Z,2.28
2017-03-22T05:05:18.542Z,2.28
2017-03-22T05:05:59.109Z,2.31
2017-03-22T05:06:39.635Z,2.35
2017-03-22T05:07:20.174Z,2.35
2017-03-22T05:08:00.714Z,2.35
2017-03-22T05:08:41.227Z,2.39
2017-03-22T05:09:21.884Z,2.3
2017-03-22T05:10:02.565Z,2.42
2017-03-22T05:10:43.134Z,2.31
2017-03-22T05:11:23.703Z,2.38
2017-03-22T05:12:04.235Z,2.39
2017-03-22T05:12:44.763Z,2.46
2017-03-22T05:13:25.351Z,2.36
2017-03-22T05:14:06.303Z,2.36
2017-03-22T05:14:46.849Z,2.41
2017-03-22T05:15:27.392Z,2.45
2017-03-22T05:16:07.918Z,2.45
2017-03-22T05:16:48.457Z,2.35
2017-03-22T05:17:28.943Z,2.45
2017-03-22T05:18:09.490Z,2.39
2017-03-22T05:18:50.049Z,2.45
2017-03-22T05:19:30.659Z,2.46
2017-03-22T05:20:12.048Z,2.49
2017-03-22T05:20:52.594Z,2.49
2017-03-22T05:21:33.170Z,2.41
2017-03-22T05:22:13.787Z,2.48
2017-03-22T05:22:54.281Z,2.48
2017-03-22T05:23:34.863Z,2.48
2017-03-22T05:24:15.422Z,2.46
2017-03-22T05:24:55.921Z,2.52
2017-03-22T05:25:36.464Z,2.43
2017-03-22T05:26:16.977Z,2.49
2017-03-22T05:26:57.478Z,2.48
2017-03-22T05:27:38.063Z,2.46
2017-03-22T05:28:18.630Z,2.46
2017-03-22T05:28:59.158Z,2.46
2017-03-22T05:29:39.743Z,2.54
2017-03-22T05:30:20.302Z,2.52
2017-03-22T05:31:00.911Z,2.53
2017-03-22T05:31:41.545Z,2.46
2017-03-22T05:32:22.086Z,2.56
2017-03-22T05:33:02.748Z,2.56
2017-03-22T05:33:43.345Z,2.56
2017-03-22T05:34:23.904Z,2.57
2017-03-22T05:35:04.442Z,2.56
2017-03-22T05:35:44.949Z,2.54
2017-03-22T05:36:25.490Z,2.66
2017-03-22T05:37:06.068Z,2.61
2017-03-22T05:37:46.510Z,2.56
2017-03-22T05:38:27.033Z,2.57
2017-03-22T05:39:07.539Z,2.66
2017-03-22T05:39:48.048Z,2.59
2017-03-22T05:40:28.602Z,2.59
2017-03-22T05:41:09.203Z,2.6
2017-03-22T05:41:49.706Z,2.63
2017-03-22T05:42:30.226Z,2.59
2017-03-22T05:43:10.735Z,2.63
2017-03-22T05:43:51.262Z,2.67
2017-03-22T05:44:31.817Z,2.64
2017-03-22T05:45:13.239Z,2.63
2017-03-22T05:45:53.778Z,2.63
2017-03-22T05:46:34.334Z,2.63
2017-03-22T05:47:14.902Z,2.67
2017-03-22T05:47:55.483Z,2.6
2017-03-22T05:48:36.047Z,2.74
2017-03-22T05:49:16.726Z,2.63
2017-03-22T05:49:57.967Z,2.75
2017-03-22T05:50:38.549Z,2.74
2017-03-22T05:51:19.102Z,2.61
2017-03-22T05:51:59.664Z,2.67
2017-03-22T05:52:40.237Z,2.78
2017-03-22T05:53:20.790Z,2.71
2017-03-22T05:54:01.366Z,2.67
2017-03-22T05:54:41.923Z,2.69
2017-03-22T05:55:22.537Z,2.74
2017-03-22T05:56:03.098Z,2.75
2017-03-22T05:56:43.686Z,2.75
2017-03-22T05:57:24.237Z,2.71
2017-03-22T05:58:04.929Z,2.74
2017-03-22T05:58:45.574Z,2.71
2017-03-22T05:59:26.303Z,2.71
2017-03-22T06:00:07.016Z,2.72
2017-03-22T06:00:47.592Z,2.69
2017-03-22T06:01:28.171Z,2.75
2017-03-22T06:02:08.751Z,2.74
2017-03-22T06:02:49.419Z,2.71
2017-03-22T06:03:29.973Z,2.72
2017-03-22T06:04:10.502Z,2.72
2017-03-22T06:04:51.006Z,2.74
2017-03-22T06:05:31.533Z,2.72
2017-03-22T06:06:12.143Z,2.74
2017-03-22T06:06:52.919Z,2.64
2017-03-22T06:07:33.478Z,2.79
2017-03-22T06:08:14.053Z,2.79
2017-03-22T06:08:54.767Z,2.77
2017-03-22T06:09:35.355Z,2.79
2017-03-22T06:10:16.204Z,2.78
2017-03-22T06:10:56.816Z,2.77
2017-03-22T06:11:37.415Z,2.74
2017-03-22T06:12:18.088Z,2.78
2017-03-22T06:12:58.601Z,2.77
2017-03-22T06:13:39.129Z,2.74
2017-03-22T06:14:19.638Z,2.75
2017-03-22T06:15:00.153Z,2.79
2017-03-22T06:15:40.716Z,2.78
2017-03-22T06:16:21.280Z,2.74
2017-03-22T06:17:01.772Z,2.77
2017-03-22T06:17:42.324Z,2.77
2017-03-22T06:18:22.784Z,2.75
2017-03-22T06:19:03.316Z,2.85
2017-03-22T06:19:43.815Z,2.81
2017-03-22T06:20:25.279Z,2.77
2017-03-22T06:21:05.739Z,2.77
2017-03-22T06:21:46.263Z,2.75
2017-03-22T06:22:26.782Z,2.79
2017-03-22T06:23:07.298Z,2.77
2017-03-22T06:23:47.818Z,2.79
2017-03-22T06:24:28.346Z,2.85
2017-03-22T06:25:08.858Z,2.89
2017-03-22T06:25:49.358Z,2.85
2017-03-22T06:26:29.895Z,2.81
2017-03-22T06:27:10.412Z,2.79
2017-03-22T06:27:50.927Z,2.82
2017-03-22T06:28:31.418Z,2.82
2017-03-22T06:29:11.941Z,2.89
2017-03-22T06:29:52.460Z,2.85
2017-03-22T06:30:32.973Z,2.9
2017-03-22T06:31:13.532Z,2.95
2017-03-22T06:31:54.033Z,3
2017-03-22T06:32:34.563Z,2.96
2017-03-22T06:33:15.068Z,2.99
2017-03-22T06:33:55.574Z,2.97
2017-03-22T06:34:36.081Z,2.96
2017-03-22T06:35:16.587Z,3
2017-03-22T06:35:57.727Z,2.92
2017-03-22T06:36:38.231Z,2.93
2017-03-22T06:37:18.725Z,2.9
2017-03-22T06:38:00.195Z,3.1
2017-03-22T06:38:40.698Z,3.05
2017-03-22T06:39:21.192Z,3.06
2017-03-22T06:40:01.690Z,2.93
2017-03-22T06:40:42.213Z,3.08
2017-03-22T06:41:22.734Z,3.08
2017-03-22T06:42:03.244Z,3.1
2017-03-22T06:42:43.756Z,3.13
2017-03-22T06:43:24.272Z,3.08
2017-03-22T06:44:04.775Z,3.13
2017-03-22T06:44:45.283Z,3.06
2017-03-22T06:45:25.790Z,3.15
2017-03-22T06:46:06.322Z,3.15
2017-03-22T06:46:46.830Z,3.15
2017-03-22T06:47:27.357Z,3.15
2017-03-22T06:48:07.883Z,3.18
2017-03-22T06:48:49.268Z,3.14
2017-03-22T06:49:29.850Z,3.18
2017-03-22T06:50:10.392Z,3.23
2017-03-22T06:50:50.884Z,3.23
2017-03-22T06:51:31.405Z,3.2
2017-03-22T06:52:11.921Z,3.28
2017-03-22T06:52:52.439Z,3.24
2017-03-22T06:53:32.962Z,3.2
2017-03-22T06:54:13.458Z,3.23
2017-03-22T06:54:53.968Z,3.14
2017-03-22T06:55:34.507Z,3.31
2017-03-22T06:56:15.010Z,3.29
2017-03-22T06:56:55.517Z,3.26
2017-03-22T06:57:36.024Z,3.26
2017-03-22T06:58:16.538Z,3.26
2017-03-22T06:58:57.050Z,3.23
2017-03-22T06:59:37.564Z,3.26
2017-03-22T07:00:18.070Z,3.21
2017-03-22T07:00:58.597Z,3.32
2017-03-22T07:01:39.128Z,3.32
2017-03-22T07:02:19.681Z,3.47
2017-03-22T07:03:00.312Z,3.42
2017-03-22T07:03:41.040Z,3.5
2017-03-22T07:04:21.582Z,3.4
2017-03-22T07:05:02.075Z,3.35
2017-03-22T07:05:42.594Z,3.42
2017-03-22T07:06:23.104Z,3.47
2017-03-22T07:07:03.616Z,3.47
2017-03-22T07:07:44.137Z,3.43
2017-03-22T07:08:24.647Z,3.55
2017-03-22T07:09:05.145Z,3.58
2017-03-22T07:09:45.674Z,3.62
2017-03-22T07:10:26.177Z,3.55
2017-03-22T07:11:06.706Z,3.65
2017-03-22T07:11:47.238Z,3.66
2017-03-22T07:12:27.737Z,3.72
2017-03-22T07:13:08.507Z,3.7
2017-03-22T07:13:49.022Z,3.69
2017-03-22T07:14:29.577Z,3.76
2017-03-22T07:15:10.094Z,3.76
2017-03-22T07:15:50.625Z,3.78
2017-03-22T07:16:31.140Z,3.86
2017-03-22T07:17:11.654Z,3.86
2017-03-22T07:17:52.161Z,3.86
2017-03-22T07:18:32.685Z,3.87
2017-03-22T07:19:13.188Z,3.91
2017-03-22T07:19:53.698Z,3.88
2017-03-22T07:20:34.223Z,3.91
2017-03-22T07:21:14.736Z,3.98
2017-03-22T07:21:55.262Z,3.97
2017-03-22T07:22:35.770Z,4.02
2017-03-22T07:23:16.287Z,3.93
2017-03-22T07:23:56.792Z,4.02
2017-03-22T07:24:37.332Z,4.04
2017-03-22T07:25:17.826Z,3.97
2017-03-22T07:25:58.329Z,4.05
2017-03-22T07:26:38.850Z,4.06
2017-03-22T07:27:19.362Z,4.09
2017-03-22T07:27:59.878Z,4.11
2017-03-22T07:28:40.385Z,4.14
2017-03-22T07:29:20.905Z,4.08
2017-03-22T07:30:01.436Z,4.22
2017-03-22T07:30:41.936Z,4.18
2017-03-22T07:31:22.476Z,4.27
2017-03-22T07:32:02.993Z,4.26
2017-03-22T07:32:43.521Z,4.15
2017-03-22T07:33:24.029Z,4.2
2017-03-22T07:34:04.538Z,4.33
2017-03-22T07:34:45.040Z,4.3
2017-03-22T07:35:25.543Z,4.22
2017-03-22T07:36:06.042Z,4.29
2017-03-22T07:36:46.573Z,4.26
2017-03-22T07:37:27.066Z,4.37
2017-03-22T07:38:07.582Z,4.33
2017-03-22T07:38:48.086Z,4.4
2017-03-22T07:39:28.592Z,4.33
2017-03-22T07:40:09.094Z,4.37
2017-03-22T07:40:49.606Z,4.33
2017-03-22T07:41:30.107Z,4.37
2017-03-22T07:42:10.634Z,4.5
2017-03-22T07:42:51.161Z,4.51
2017-03-22T07:43:31.699Z,4.45
2017-03-22T07:44:12.216Z,4.54
2017-03-22T07:44:52.752Z,4.54
2017-03-22T07:45:33.273Z,4.54
2017-03-22T07:46:13.773Z,4.58
2017-03-22T07:46:54.284Z,4.62
2017-03-22T07:47:34.803Z,4.58
2017-03-22T07:48:15.329Z,4.66
2017-03-22T07:48:55.830Z,4.66
2017-03-22T07:49:36.340Z,4.69
2017-03-22T07:50:16.833Z,4.73
2017-03-22T07:50:57.336Z,4.75
2017-03-22T07:51:37.858Z,4.8
2017-03-22T07:52:18.373Z,4.77
2017-03-22T07:52:58.900Z,4.88
2017-03-22T07:53:39.379Z,4.92
2017-03-22T07:54:19.916Z,4.96
2017-03-22T07:55:00.421Z,5
2017-03-22T07:55:40.934Z,5.02
2017-03-22T07:56:21.428Z,5.07
2017-03-22T07:57:01.957Z,5.13
2017-03-22T07:57:42.460Z,5.12
2017-03-22T07:58:22.979Z,5.15
2017-03-22T07:59:03.492Z,5.27
2017-03-22T07:59:44.011Z,5.27
2017-03-22T08:00:24.524Z,5.33
2017-03-22T08:01:05.027Z,5.35
2017-03-22T08:01:45.538Z,5.46
2017-03-22T08:02:26.060Z,5.48
2017-03-22T08:03:06.570Z,5.46
2017-03-22T08:03:47.097Z,5.58
2017-03-22T08:04:27.614Z,5.54
2017-03-22T08:05:08.136Z,5.61
2017-03-22T08:05:48.646Z,5.68
2017-03-22T08:06:29.145Z,5.65
2017-03-22T08:07:09.666Z,5.74
2017-03-22T08:07:50.178Z,5.78
2017-03-22T08:08:30.710Z,5.79
2017-03-22T08:09:11.235Z,5.85
2017-03-22T08:09:51.752Z,5.86
2017-03-22T08:10:32.260Z,5.97
2017-03-22T08:11:12.786Z,5.96
2017-03-22T08:11:53.297Z,5.97
2017-03-22T08:12:33.795Z,6.04
2017-03-22T08:13:14.336Z,6.06
2017-03-22T08:13:54.844Z,6.12
2017-03-22T08:14:35.367Z,6.09
2017-03-22T08:15:15.889Z,6.17
2017-03-22T08:15:56.394Z,6.3
2017-03-22T08:16:36.911Z,6.27
2017-03-22T08:17:17.441Z,6.38
2017-03-22T08:17:57.950Z,6.33
2017-03-22T08:18:38.449Z,6.43
2017-03-22T08:19:18.962Z,6.43
2017-03-22T08:19:59.479Z,6.55
2017-03-22T08:20:39.991Z,6.55
2017-03-22T08:21:20.544Z,6.69
2017-03-22T08:22:01.044Z,6.76
2017-03-22T08:22:41.565Z,6.7
2017-03-22T08:23:22.109Z,6.8
2017-03-22T08:24:02.619Z,6.95
2017-03-22T08:24:43.129Z,7.03
2017-03-22T08:25:23.661Z,7.02
2017-03-22T08:26:04.187Z,7.21
2017-03-22T08:26:44.705Z,7.25
2017-03-22T08:27:25.212Z,7.28
2017-03-22T08:28:05.719Z,7.24
2017-03-22T08:28:46.233Z,7.31
2017-03-22T08:29:26.747Z,7.31
2017-03-22T08:30:07.302Z,7.42
2017-03-22T08:30:47.820Z,7.48
2017-03-22T08:31:28.336Z,7.46
2017-03-22T08:32:08.853Z,7.53
2017-03-22T08:32:49.373Z,7.52
2017-03-22T08:33:29.893Z,7.53
2017-03-22T08:34:10.413Z,7.67
2017-03-22T08:34:50.927Z,7.68
2017-03-22T08:35:31.442Z,7.71
2017-03-22T08:36:11.950Z,7.74
2017-03-22T08:36:52.470Z,7.85
2017-03-22T08:37:32.993Z,7.87
2017-03-22T08:38:13.504Z,8
2017-03-22T08:38:54.029Z,7.92
2017-03-22T08:39:34.553Z,7.92
2017-03-22T08:40:15.087Z,7.95
2017-03-22T08:40:55.604Z,7.98
2017-03-22T08:41:36.124Z,7.97
2017-03-22T08:42:16.642Z,8.1
2017-03-22T08:42:57.140Z,8.2
2017-03-22T08:43:37.673Z,8.12
2017-03-22T08:44:18.196Z,8.26
2017-03-22T08:44:58.717Z,8.4
2017-03-22T08:45:39.238Z,8.47
2017-03-22T08:46:19.764Z,8.5
2017-03-22T08:47:00.275Z,8.47
2017-03-22T08:47:40.813Z,8.61
2017-03-22T08:48:21.332Z,8.62
2017-03-22T08:49:01.859Z,8.59
2017-03-22T08:49:42.375Z,8.58
2017-03-22T08:50:22.896Z,8.66
2017-03-22T08:51:03.420Z,8.76
2017-03-22T08:51:43.926Z,8.71
2017-03-22T08:52:24.436Z,8.89
2017-03-22T08:53:04.945Z,9.04
2017-03-22T08:53:45.468Z,9.14
2017-03-22T08:54:25.993Z,9.26
2017-03-22T08:55:06.491Z,9.36
2017-03-22T08:55:47.015Z,9.4
2017-03-22T08:56:27.589Z,9.47
2017-03-22T08:57:08.103Z,9.65
2017-03-22T08:57:48.636Z,9.78
2017-03-22T08:58:29.148Z,9.72
2017-03-22T08:59:10.391Z,9.74
2017-03-22T08:59:50.905Z,9.71
2017-03-22T09:00:31.421Z,9.64
2017-03-22T09:01:11.938Z,9.47
2017-03-22T09:01:52.478Z,9.33
2017-03-22T09:02:32.989Z,9.33
2017-03-22T09:03:13.484Z,9.23
2017-03-22T09:03:53.996Z,9.21